Time;durP1;ratioP1;P1;durP2;ratioP2;P2;SDS_P1;SDS_P2;PMS_P1;PMS_P2;Temp;Humidity;BMP_temperature;BMP_pressure;BME280_temperature;BME280_humidity;BME280_pressure;Samples;Min_cycle;Max_cycle;Signal;HPM_P1;HPM_P2
2023/09/23 00:02:18;;;;;;;15.10;11.98;;;;;;;;;;6212615;23;20020;-77
2023/09/23 00:04:45;;;;;;;17.80;13.15;;;;;;;;;;6186076;23;20015;-77
2023/09/23 00:07:11;;;;;;;17.17;11.75;;;;;;;;;;6213726;23;20013;-77
2023/09/23 00:09:37;;;;;;;14.25;11.18;;;;;;;;;;6213942;23;20013;-76
2023/09/23 00:12:03;;;;;;;15.10;11.45;;;;;;;;;;6186480;23;20012;-78
2023/09/23 00:14:29;;;;;;;22.95;12.45;;;;;;;;;;6186830;23;20039;-79
2023/09/23 00:16:55;;;;;;;20.98;12.85;;;;;;;;;;6187730;23;20604;-78
2023/09/23 00:19:21;;;;;;;15.93;11.60;;;;;;;;;;6186834;23;20009;-78
2023/09/23 00:21:49;;;;;;;17.52;12.65;;;;;;;;;;6186003;23;20381;-79
2023/09/23 00:24:15;;;;;;;17.52;12.23;;;;;;;;;;6213249;23;20092;-81
2023/09/23 00:26:42;;;;;;;16.10;11.55;;;;;;;;;;6162879;23;20038;-78
2023/09/23 00:29:08;;;;;;;15.75;10.48;;;;;;;;;;6213630;23;20027;-75
2023/09/23 00:31:34;;;;;;;16.90;9.90;;;;;;;;;;6188864;23;20018;-75
2023/09/23 00:34:00;;;;;;;11.18;9.55;;;;;;;;;;6215203;23;20017;-76
2023/09/23 00:36:26;;;;;;;10.00;8.98;;;;;;;;;;6226802;23;20043;-78
2023/09/23 00:38:52;;;;;;;15.02;9.00;;;;;;;;;;6139906;23;20071;-77
2023/09/23 00:41:18;;;;;;;11.75;9.48;;;;;;;;;;6163186;23;20024;-77
2023/09/23 00:43:46;;;;;;;16.05;8.23;;;;;;;;;;6186360;23;20012;-78
2023/09/23 00:46:19;;;;;;;16.38;11.07;;;;;;;;;;6163079;23;20012;-76
2023/09/23 00:48:45;;;;;;;15.15;11.27;;;;;;;;;;6186865;23;20349;-76
2023/09/23 00:51:11;;;;;;;20.45;10.30;;;;;;;;;;6186434;23;20088;-79
2023/09/23 00:53:39;;;;;;;16.63;11.38;;;;;;;;;;6162219;23;20019;-77
2023/09/23 00:56:07;;;;;;;15.85;11.60;;;;;;;;;;6186183;23;20009;-77
2023/09/23 00:58:36;;;;;;;13.20;9.13;;;;;;;;;;6186746;23;20039;-78
2023/09/23 01:01:05;;;;;;;12.53;10.77;;;;;;;;;;6185852;23;20024;-77
2023/09/23 01:03:31;;;;;;;16.15;9.25;;;;;;;;;;6186083;23;20008;-78
2023/09/23 01:06:03;;;;;;;11.90;9.30;;;;;;;;;;6161295;23;20012;-78
2023/09/23 01:08:32;;;;;;;16.23;9.35;;;;;;;;;;6186214;23;20013;-78
2023/09/23 01:10:59;;;;;;;9.93;8.35;;;;;;;;;;6161599;23;20040;-76
2023/09/23 01:13:29;;;;;;;11.68;9.57;;;;;;;;;;6161637;23;20008;-79
2023/09/23 01:15:55;;;;;;;10.97;9.70;;;;;;;;;;6212744;23;20430;-78
2023/09/23 01:18:23;;;;;;;10.45;9.23;;;;;;;;;;6186099;23;20040;-77
2023/09/23 01:20:50;;;;;;;9.90;8.90;;;;;;;;;;6137534;23;20028;-78
2023/09/23 01:23:16;;;;;;;16.70;8.95;;;;;;;;;;6212658;23;20438;-76
2023/09/23 01:25:42;;;;;;;15.25;9.80;;;;;;;;;;6160965;23;20457;-78
2023/09/23 01:28:11;;;;;;;13.57;9.07;;;;;;;;;;6185080;23;20027;-78
2023/09/23 01:30:38;;;;;;;13.23;11.23;;;;;;;;;;6186540;23;20465;-78
2023/09/23 01:33:07;;;;;;;12.68;10.32;;;;;;;;;;6212041;23;20013;-78
2023/09/23 01:35:33;;;;;;;15.05;10.68;;;;;;;;;;6212152;23;20012;-77
2023/09/23 01:38:04;;;;;;;12.32;10.77;;;;;;;;;;6186011;23;20087;-77
2023/09/23 01:40:31;;;;;;;15.05;9.10;;;;;;;;;;6186168;23;20087;-78
2023/09/23 01:43:01;;;;;;;15.18;9.63;;;;;;;;;;6185928;23;20013;-77
2023/09/23 01:45:28;;;;;;;10.82;8.80;;;;;;;;;;6162245;23;20012;-78
2023/09/23 01:47:56;;;;;;;9.02;8.05;;;;;;;;;;6185363;23;20008;-78
2023/09/23 01:50:24;;;;;;;12.18;8.95;;;;;;;;;;6162439;23;20040;-78
2023/09/23 01:52:51;;;;;;;12.90;7.70;;;;;;;;;;6185515;23;20013;-79
2023/09/23 01:55:17;;;;;;;29.42;7.30;;;;;;;;;;6186280;23;20012;-78
2023/09/23 01:57:43;;;;;;;16.92;8.95;;;;;;;;;;6161373;23;20079;-78
2023/09/23 02:00:17;;;;;;;11.77;7.50;;;;;;;;;;6136446;23;20021;-78
2023/09/23 02:02:43;;;;;;;7.80;7.10;;;;;;;;;;6187777;23;20078;-77
2023/09/23 02:05:09;;;;;;;10.82;7.38;;;;;;;;;;6161199;23;20016;-78
2023/09/23 02:07:36;;;;;;;15.00;7.43;;;;;;;;;;6162105;23;20016;-77
2023/09/23 02:10:02;;;;;;;14.23;8.07;;;;;;;;;;6212818;23;20392;-77
2023/09/23 02:12:33;;;;;;;12.88;8.27;;;;;;;;;;6162579;23;20017;-79
2023/09/23 02:15:00;;;;;;;7.78;7.10;;;;;;;;;;6185846;23;20016;-77
2023/09/23 02:17:26;;;;;;;11.02;7.72;;;;;;;;;;6185727;23;20008;-78
2023/09/23 02:19:53;;;;;;;6.70;5.72;;;;;;;;;;6210994;23;20012;-78
2023/09/23 02:22:20;;;;;;;8.32;7.60;;;;;;;;;;6185405;23;20103;-78
2023/09/23 02:24:47;;;;;;;9.27;7.50;;;;;;;;;;6212518;23;20009;-78
2023/09/23 02:27:13;;;;;;;12.13;8.30;;;;;;;;;;6184895;23;20023;-77
2023/09/23 02:29:41;;;;;;;14.38;8.45;;;;;;;;;;6211587;23;20020;-77
2023/09/23 02:32:07;;;;;;;7.82;7.03;;;;;;;;;;6184939;23;20493;-78
2023/09/23 02:34:36;;;;;;;11.88;7.30;;;;;;;;;;6211952;23;20012;-77
2023/09/23 02:37:04;;;;;;;9.30;7.25;;;;;;;;;;6137823;23;20017;-79
2023/09/23 02:39:31;;;;;;;11.13;7.50;;;;;;;;;;6214053;23;20012;-77
2023/09/23 02:41:59;;;;;;;10.48;7.18;;;;;;;;;;6187326;23;20027;-78
2023/09/23 02:44:27;;;;;;;7.15;6.18;;;;;;;;;;6188143;23;20032;-78
2023/09/23 02:46:53;;;;;;;11.52;7.07;;;;;;;;;;6187156;23;20012;-76
2023/09/23 02:49:19;;;;;;;9.98;6.53;;;;;;;;;;6187792;23;20040;-77
2023/09/23 02:51:45;;;;;;;7.57;5.90;;;;;;;;;;6163067;23;20032;-77
2023/09/23 02:54:18;;;;;;;7.68;6.90;;;;;;;;;;6213817;23;20012;-77
2023/09/23 02:56:46;;;;;;;8.20;7.32;;;;;;;;;;6188067;23;20071;-77
2023/09/23 02:59:21;;;;;;;15.88;8.30;;;;;;;;;;6187933;23;20519;-76
2023/09/23 03:01:51;;;;;;;7.15;6.55;;;;;;;;;;6187148;23;20048;-78
2023/09/23 03:04:24;;;;;;;8.88;7.18;;;;;;;;;;6187529;23;20535;-77
2023/09/23 03:06:55;;;;;;;6.90;6.30;;;;;;;;;;6214307;23;20103;-77
2023/09/23 03:09:25;;;;;;;9.07;7.07;;;;;;;;;;6213740;23;20044;-77
2023/09/23 03:11:57;;;;;;;14.85;7.85;;;;;;;;;;6187442;23;20008;-77
2023/09/23 03:14:35;;;;;;;6.65;6.03;;;;;;;;;;6213644;23;20059;-77
2023/09/23 03:17:04;;;;;;;8.43;6.25;;;;;;;;;;6187261;23;20012;-77
2023/09/23 03:19:34;;;;;;;6.80;6.28;;;;;;;;;;6137717;23;20016;-77
2023/09/23 03:22:01;;;;;;;7.53;6.80;;;;;;;;;;6213282;23;20526;-77
2023/09/23 03:24:31;;;;;;;8.65;6.32;;;;;;;;;;6162883;23;20095;-77
2023/09/23 03:27:00;;;;;;;10.25;7.20;;;;;;;;;;6213681;23;20020;-77
2023/09/23 03:29:28;;;;;;;11.40;6.10;;;;;;;;;;6213837;23;20024;-76
2023/09/23 03:31:55;;;;;;;8.13;6.90;;;;;;;;;;6162515;23;20035;-78
2023/09/23 03:34:22;;;;;;;10.23;6.50;;;;;;;;;;6186925;23;20047;-78
2023/09/23 03:36:47;;;;;;;7.00;6.20;;;;;;;;;;6187040;23;20069;-77
2023/09/23 03:39:13;;;;;;;7.43;6.65;;;;;;;;;;6186678;23;20087;-78
2023/09/23 03:41:40;;;;;;;7.35;6.55;;;;;;;;;;6162038;23;20025;-76
2023/09/23 03:44:07;;;;;;;11.45;6.30;;;;;;;;;;6214020;23;20013;-78
2023/09/23 03:46:33;;;;;;;12.27;7.15;;;;;;;;;;6215250;23;20016;-77
2023/09/23 03:49:00;;;;;;;7.47;6.07;;;;;;;;;;6196466;23;20013;-78
2023/09/23 03:51:26;;;;;;;6.60;6.07;;;;;;;;;;6227097;23;20008;-78
2023/09/23 03:53:52;;;;;;;7.20;6.50;;;;;;;;;;6200620;23;20012;-76
2023/09/23 03:56:24;;;;;;;7.82;5.82;;;;;;;;;;6193163;23;20008;-78
2023/09/23 03:58:52;;;;;;;10.65;6.88;;;;;;;;;;6187445;23;20020;-77
2023/09/23 04:01:20;;;;;;;9.27;7.28;;;;;;;;;;6187728;23;20025;-75
2023/09/23 04:03:46;;;;;;;6.85;5.95;;;;;;;;;;6137956;23;20018;-77
2023/09/23 04:06:12;;;;;;;7.35;6.57;;;;;;;;;;6213246;23;20453;-76
2023/09/23 04:08:38;;;;;;;6.75;6.13;;;;;;;;;;6186956;23;20016;-78
2023/09/23 04:11:05;;;;;;;7.53;6.65;;;;;;;;;;6213120;23;20020;-76
2023/09/23 04:13:31;;;;;;;6.90;6.22;;;;;;;;;;6186440;23;20361;-76
2023/09/23 04:16:00;;;;;;;11.23;6.47;;;;;;;;;;6212490;23;20017;-79
2023/09/23 04:18:27;;;;;;;7.40;6.80;;;;;;;;;;6162248;23;20015;-78
2023/09/23 04:20:53;;;;;;;5.10;4.50;;;;;;;;;;6186859;23;20028;-76
2023/09/23 04:23:19;;;;;;;7.50;6.80;;;;;;;;;;6161717;23;20012;-76
2023/09/23 04:25:45;;;;;;;8.65;6.43;;;;;;;;;;6186438;23;20098;-77
2023/09/23 04:28:11;;;;;;;11.60;7.07;;;;;;;;;;6186480;23;20028;-76
2023/09/23 04:30:37;;;;;;;7.97;7.10;;;;;;;;;;6162541;23;20016;-77
2023/09/23 04:33:04;;;;;;;7.47;6.40;;;;;;;;;;6213766;23;20005;-78
2023/09/23 04:35:30;;;;;;;9.38;6.53;;;;;;;;;;6187134;23;20453;-78
2023/09/23 04:37:56;;;;;;;7.97;5.53;;;;;;;;;;6161834;23;20455;-79
2023/09/23 04:40:22;;;;;;;12.93;6.38;;;;;;;;;;6187373;23;20021;-80
2023/09/23 04:42:48;;;;;;;10.95;6.53;;;;;;;;;;6213469;23;20236;-77
2023/09/23 04:45:14;;;;;;;8.48;6.97;;;;;;;;;;6213318;23;20100;-78
2023/09/23 04:47:40;;;;;;;9.10;6.78;;;;;;;;;;6213274;23;20401;-79
2023/09/23 04:50:07;;;;;;;12.73;6.60;;;;;;;;;;6212950;23;20012;-79
2023/09/23 04:52:33;;;;;;;9.20;5.55;;;;;;;;;;6187015;23;20149;-79
2023/09/23 04:54:59;;;;;;;11.32;7.25;;;;;;;;;;6161703;23;20057;-77
2023/09/23 04:57:25;;;;;;;10.00;5.90;;;;;;;;;;6186367;23;20047;-77
2023/09/23 04:59:52;;;;;;;11.20;6.78;;;;;;;;;;6212218;23;20013;-78
2023/09/23 05:02:18;;;;;;;10.25;6.82;;;;;;;;;;6212824;23;20013;-77
2023/09/23 05:04:53;;;;;;;6.90;6.20;;;;;;;;;;6213279;23;20009;-78
2023/09/23 05:07:20;;;;;;;7.32;6.05;;;;;;;;;;6189129;23;20020;-75
2023/09/23 05:09:46;;;;;;;8.48;6.03;;;;;;;;;;6186650;23;20008;-78
2023/09/23 05:12:14;;;;;;;9.68;6.20;;;;;;;;;;6212748;23;20043;-79
2023/09/23 05:14:42;;;;;;;7.68;6.32;;;;;;;;;;6162156;23;20016;-78
2023/09/23 05:17:14;;;;;;;12.10;5.82;;;;;;;;;;6186176;23;20016;-78
2023/09/23 05:19:40;;;;;;;7.05;5.85;;;;;;;;;;6212894;23;20327;-78
2023/09/23 05:22:08;;;;;;;6.43;5.93;;;;;;;;;;6186462;23;20020;-78
2023/09/23 05:24:34;;;;;;;6.43;5.78;;;;;;;;;;6161775;23;20083;-78
2023/09/23 05:27:01;;;;;;;9.82;6.07;;;;;;;;;;6185592;23;20012;-79
2023/09/23 05:29:27;;;;;;;10.90;6.07;;;;;;;;;;6186109;23;20524;-78
2023/09/23 05:31:53;;;;;;;7.70;5.43;;;;;;;;;;6186832;23;20040;-78
2023/09/23 05:34:19;;;;;;;10.05;5.88;;;;;;;;;;6213029;23;20020;-78
2023/09/23 05:36:48;;;;;;;6.72;6.03;;;;;;;;;;6186625;23;20406;-80
2023/09/23 05:39:18;;;;;;;9.57;6.45;;;;;;;;;;6212663;23;20016;-80
2023/09/23 05:41:47;;;;;;;6.03;5.47;;;;;;;;;;6162429;23;20040;-79
2023/09/23 05:44:15;;;;;;;9.90;6.05;;;;;;;;;;6185624;23;20551;-80
2023/09/23 05:46:42;;;;;;;8.50;6.93;;;;;;;;;;6212703;23;20017;-80
2023/09/23 05:49:12;;;;;;;11.05;6.13;;;;;;;;;;6212036;23;20016;-80
2023/09/23 05:51:38;;;;;;;13.98;6.18;;;;;;;;;;6161858;23;20055;-80
2023/09/23 05:54:04;;;;;;;8.70;6.43;;;;;;;;;;6185575;23;20016;-81
2023/09/23 05:56:30;;;;;;;13.73;7.38;;;;;;;;;;6213044;23;20449;-80
2023/09/23 05:58:57;;;;;;;13.93;6.80;;;;;;;;;;6162052;23;20016;-81
2023/09/23 06:01:23;;;;;;;7.30;6.60;;;;;;;;;;6187168;23;20355;-81
2023/09/23 06:03:50;;;;;;;12.63;6.55;;;;;;;;;;6212435;23;20101;-80
2023/09/23 06:06:16;;;;;;;14.93;6.82;;;;;;;;;;6185569;23;20357;-81
2023/09/23 06:08:42;;;;;;;11.75;6.28;;;;;;;;;;6182256;23;20017;-78
2023/09/23 06:11:11;;;;;;;8.52;6.70;;;;;;;;;;6184730;23;20066;-78
2023/09/23 06:13:37;;;;;;;10.90;6.47;;;;;;;;;;6185533;23;20013;-79
2023/09/23 06:16:03;;;;;;;7.65;5.55;;;;;;;;;;6160714;23;20070;-78
2023/09/23 06:18:29;;;;;;;8.07;5.63;;;;;;;;;;6161409;23;20103;-78
2023/09/23 06:20:57;;;;;;;15.57;5.70;;;;;;;;;;6185370;23;20480;-78
2023/09/23 06:23:24;;;;;;;6.15;5.53;;;;;;;;;;6213036;23;20008;-77
2023/09/23 06:25:57;;;;;;;9.90;5.68;;;;;;;;;;6186534;23;20016;-79
2023/09/23 06:28:23;;;;;;;11.52;5.40;;;;;;;;;;6214860;23;20020;-81
2023/09/23 06:30:49;;;;;;;12.20;5.00;;;;;;;;;;6165660;23;20472;-79
2023/09/23 06:33:15;;;;;;;8.27;5.32;;;;;;;;;;6185424;23;20103;-79
2023/09/23 06:35:42;;;;;;;8.50;5.07;;;;;;;;;;6189585;23;20012;-81
2023/09/23 06:38:08;;;;;;;22.42;7.10;;;;;;;;;;6136222;23;20439;-82
2023/09/23 06:40:34;;;;;;;15.35;5.90;;;;;;;;;;6211959;23;20024;-80
2023/09/23 06:43:00;;;;;;;11.45;5.60;;;;;;;;;;6185887;23;20015;-79
2023/09/23 06:45:26;;;;;;;13.27;5.53;;;;;;;;;;6162130;23;20012;-80
2023/09/23 06:47:52;;;;;;;9.65;4.82;;;;;;;;;;6185568;23;20087;-80
2023/09/23 06:50:19;;;;;;;6.30;5.32;;;;;;;;;;6185745;23;20564;-81
2023/09/23 06:52:45;;;;;;;11.20;6.03;;;;;;;;;;6161573;23;20020;-78
2023/09/23 06:55:11;;;;;;;10.82;5.25;;;;;;;;;;6212349;23;20040;-79
2023/09/23 06:57:37;;;;;;;6.82;5.00;;;;;;;;;;6138287;23;20461;-80
2023/09/23 07:00:06;;;;;;;8.10;4.35;;;;;;;;;;6221800;23;20051;-81
2023/09/23 07:02:32;;;;;;;8.63;4.57;;;;;;;;;;6222618;23;20338;-81
2023/09/23 07:04:58;;;;;;;5.28;4.85;;;;;;;;;;6187990;23;20087;-81
2023/09/23 07:07:24;;;;;;;6.75;4.47;;;;;;;;;;6189322;23;20017;-82
2023/09/23 07:09:50;;;;;;;10.55;5.95;;;;;;;;;;6187538;23;20015;-82
2023/09/23 07:12:16;;;;;;;10.23;4.97;;;;;;;;;;6186717;23;20034;-82
2023/09/23 07:14:42;;;;;;;8.05;4.90;;;;;;;;;;6187073;23;20480;-80
2023/09/23 07:17:08;;;;;;;6.70;3.92;;;;;;;;;;6184978;23;20106;-80
2023/09/23 07:19:34;;;;;;;7.57;4.60;;;;;;;;;;6160081;23;20468;-81
2023/09/23 07:22:01;;;;;;;11.50;4.75;;;;;;;;;;6161331;23;20020;-80
2023/09/23 07:24:27;;;;;;;12.73;4.97;;;;;;;;;;6212057;23;20549;-82
2023/09/23 07:26:54;;;;;;;6.63;4.45;;;;;;;;;;6188229;23;20019;-82
2023/09/23 07:29:20;;;;;;;11.10;4.80;;;;;;;;;;6173618;23;20062;-80
2023/09/23 07:31:46;;;;;;;12.80;4.82;;;;;;;;;;6169327;23;20449;-80
2023/09/23 07:34:12;;;;;;;7.10;4.15;;;;;;;;;;6186970;23;20023;-81
2023/09/23 07:36:38;;;;;;;5.03;4.10;;;;;;;;;;6187401;23;20491;-81
2023/09/23 07:39:04;;;;;;;8.18;4.70;;;;;;;;;;6212500;23;20091;-82
2023/09/23 07:41:30;;;;;;;7.13;4.32;;;;;;;;;;6184263;23;20048;-79
2023/09/23 07:43:57;;;;;;;4.57;4.10;;;;;;;;;;6213897;23;20012;-79
2023/09/23 07:46:23;;;;;;;5.13;4.13;;;;;;;;;;6216360;23;20079;-81
2023/09/23 07:48:49;;;;;;;14.32;4.35;;;;;;;;;;6164215;23;20012;-79
2023/09/23 07:51:15;;;;;;;8.98;4.25;;;;;;;;;;6162778;23;20356;-79
2023/09/23 07:53:41;;;;;;;7.53;3.90;;;;;;;;;;6187709;23;20012;-79
2023/09/23 07:56:07;;;;;;;15.63;11.82;;;;;;;;;;6187803;23;20167;-81
2023/09/23 07:58:33;;;;;;;4.97;4.57;;;;;;;;;;6186773;23;20036;-80
2023/09/23 08:00:59;;;;;;;5.80;3.95;;;;;;;;;;6212872;23;20469;-79
2023/09/23 08:03:26;;;;;;;6.93;4.30;;;;;;;;;;6136915;23;20481;-79
2023/09/23 08:05:53;;;;;;;5.25;4.75;;;;;;;;;;6214698;23;20017;-80
2023/09/23 08:08:19;;;;;;;8.65;3.80;;;;;;;;;;6185248;23;20025;-79
2023/09/23 08:10:45;;;;;;;4.63;4.13;;;;;;;;;;6212247;23;20016;-81
2023/09/23 08:13:11;;;;;;;14.57;4.28;;;;;;;;;;6210095;23;20088;-82
2023/09/23 08:15:37;;;;;;;8.05;5.15;;;;;;;;;;6185795;23;20023;-80
2023/09/23 08:18:04;;;;;;;9.63;4.25;;;;;;;;;;6191024;23;20011;-83
2023/09/23 08:20:30;;;;;;;7.78;4.72;;;;;;;;;;6214346;23;20016;-83
2023/09/23 08:22:56;;;;;;;5.97;4.10;;;;;;;;;;6164741;23;20012;-83
2023/09/23 08:25:22;;;;;;;11.20;4.57;;;;;;;;;;6228732;23;20016;-83
2023/09/23 08:27:50;;;;;;;8.23;4.03;;;;;;;;;;6169712;23;20393;-82
2023/09/23 08:30:17;;;;;;;6.00;3.75;;;;;;;;;;6186742;23;20017;-77
2023/09/23 08:32:44;;;;;;;9.45;3.83;;;;;;;;;;6180492;23;20013;-78
2023/09/23 08:35:10;;;;;;;9.50;4.22;;;;;;;;;;6181593;23;20143;-79
2023/09/23 08:37:39;;;;;;;6.95;4.30;;;;;;;;;;6182132;23;20005;-77
2023/09/23 08:40:11;;;;;;;4.80;3.60;;;;;;;;;;6179347;23;20016;-77
2023/09/23 08:42:40;;;;;;;6.82;3.92;;;;;;;;;;6179905;23;20032;-81
2023/09/23 08:45:08;;;;;;;9.88;4.30;;;;;;;;;;6154470;23;20013;-77
2023/09/23 08:47:34;;;;;;;6.25;4.20;;;;;;;;;;6155787;23;20068;-76
2023/09/23 08:50:00;;;;;;;8.95;4.00;;;;;;;;;;6154773;23;20023;-79
2023/09/23 08:52:27;;;;;;;5.55;3.90;;;;;;;;;;6180567;23;20477;-80
2023/09/23 08:54:53;;;;;;;4.78;4.05;;;;;;;;;;6180665;23;20013;-82
2023/09/23 08:57:20;;;;;;;4.00;3.70;;;;;;;;;;6154859;23;20028;-72
2023/09/23 08:59:46;;;;;;;5.78;4.30;;;;;;;;;;6181876;23;20013;-72
2023/09/23 09:02:16;;;;;;;4.68;3.60;;;;;;;;;;6181821;23;20016;-72
2023/09/23 09:04:42;;;;;;;6.65;3.80;;;;;;;;;;6182012;23;20013;-73
2023/09/23 09:07:08;;;;;;;8.65;3.97;;;;;;;;;;6155193;23;20027;-72
2023/09/23 09:09:36;;;;;;;4.80;3.70;;;;;;;;;;6180705;23;20446;-72
2023/09/23 09:12:03;;;;;;;5.55;3.85;;;;;;;;;;6178626;23;20013;-73
2023/09/23 09:14:30;;;;;;;4.43;4.13;;;;;;;;;;6181428;23;20047;-73
2023/09/23 09:16:56;;;;;;;4.47;3.72;;;;;;;;;;6182002;23;20009;-72
2023/09/23 09:19:21;;;;;;;8.50;7.10;;;;;;;;;;6181028;23;20017;-72
2023/09/23 09:21:49;;;;;;;8.45;4.22;;;;;;;;;;6181520;23;20025;-73
2023/09/23 09:24:14;;;;;;;11.30;5.22;;;;;;;;;;6181223;23;20009;-73
2023/09/23 09:26:40;;;;;;;11.00;9.13;;;;;;;;;;6179994;23;20023;-73
2023/09/23 09:29:07;;;;;;;10.18;4.07;;;;;;;;;;6154928;23;20028;-72
2023/09/23 09:31:38;;;;;;;7.75;5.63;;;;;;;;;;6154942;23;20449;-72
2023/09/23 09:34:05;;;;;;;8.80;3.90;;;;;;;;;;6181243;23;20051;-72
2023/09/23 09:36:35;;;;;;;4.38;3.97;;;;;;;;;;6181690;23;20020;-72
2023/09/23 09:39:01;;;;;;;5.65;4.00;;;;;;;;;;6155142;23;20501;-72
2023/09/23 09:41:30;;;;;;;19.73;10.93;;;;;;;;;;6181911;23;20027;-72
2023/09/23 09:43:58;;;;;;;8.82;6.70;;;;;;;;;;6181542;23;20084;-72
2023/09/23 09:46:27;;;;;;;8.45;4.30;;;;;;;;;;6178580;23;20038;-71
2023/09/23 09:48:54;;;;;;;3.47;3.27;;;;;;;;;;6180401;23;20096;-72
2023/09/23 09:51:21;;;;;;;11.02;3.80;;;;;;;;;;6181618;23;20024;-72
2023/09/23 09:53:46;;;;;;;12.00;10.60;;;;;;;;;;6179750;23;20009;-72
2023/09/23 09:56:13;;;;;;;5.35;4.07;;;;;;;;;;6155074;23;20024;-72
2023/09/23 09:58:40;;;;;;;6.78;3.55;;;;;;;;;;6181691;23;20044;-76
2023/09/23 10:01:12;;;;;;;9.55;4.05;;;;;;;;;;6180030;23;20024;-71
2023/09/23 10:03:51;;;;;;;7.22;3.72;;;;;;;;;;6155738;23;20024;-72
2023/09/23 10:06:22;;;;;;;4.80;3.40;;;;;;;;;;6180478;23;20017;-73
2023/09/23 10:08:52;;;;;;;4.35;3.95;;;;;;;;;;6181154;23;20454;-73
2023/09/23 10:11:18;;;;;;;5.07;3.97;;;;;;;;;;6130245;23;20521;-73
2023/09/23 10:13:45;;;;;;;5.82;3.90;;;;;;;;;;6154612;23;20036;-73
2023/09/23 10:16:12;;;;;;;5.13;3.65;;;;;;;;;;6154721;23;20043;-73
2023/09/23 10:18:39;;;;;;;5.50;4.07;;;;;;;;;;6180008;23;20092;-73
2023/09/23 10:21:06;;;;;;;6.88;3.70;;;;;;;;;;6180310;23;20025;-73
2023/09/23 10:23:35;;;;;;;4.70;3.97;;;;;;;;;;6181361;23;20087;-73
2023/09/23 10:26:18;;;;;;;3.58;3.28;;;;;;;;;;6181243;23;20017;-73
2023/09/23 10:28:57;;;;;;;4.43;4.03;;;;;;;;;;6180048;23;20049;-73
2023/09/23 10:31:33;;;;;;;5.40;3.75;;;;;;;;;;6181327;23;20013;-75
2023/09/23 10:34:06;;;;;;;4.38;3.97;;;;;;;;;;6181180;23;20413;-74
2023/09/23 10:36:33;;;;;;;5.50;3.92;;;;;;;;;;6182186;23;20088;-74
2023/09/23 10:38:59;;;;;;;5.88;3.38;;;;;;;;;;6178858;23;20549;-72
2023/09/23 10:41:35;;;;;;;6.72;3.60;;;;;;;;;;6179253;23;20025;-73
2023/09/23 10:44:04;;;;;;;6.88;3.83;;;;;;;;;;6181002;23;20652;-73
2023/09/23 10:46:30;;;;;;;4.03;3.40;;;;;;;;;;6181104;23;20019;-73
2023/09/23 10:48:57;;;;;;;5.90;4.35;;;;;;;;;;6179687;23;20063;-73
2023/09/23 10:51:23;;;;;;;5.85;4.05;;;;;;;;;;6181708;23;20017;-73
2023/09/23 10:53:49;;;;;;;9.35;3.63;;;;;;;;;;6181658;23;20036;-73
2023/09/23 10:56:22;;;;;;;8.50;3.67;;;;;;;;;;6179448;23;20044;-74
2023/09/23 10:58:50;;;;;;;4.65;3.58;;;;;;;;;;6155470;23;20338;-73
2023/09/23 11:01:18;;;;;;;5.63;3.30;;;;;;;;;;6182785;23;20458;-73
2023/09/23 11:03:45;;;;;;;3.83;3.63;;;;;;;;;;6181514;23;20020;-74
2023/09/23 11:06:11;;;;;;;8.27;3.80;;;;;;;;;;6181050;23;20509;-73
2023/09/23 11:08:37;;;;;;;6.15;4.05;;;;;;;;;;6183126;23;20013;-73
2023/09/23 11:11:03;;;;;;;4.25;3.78;;;;;;;;;;6182803;23;20024;-72
2023/09/23 11:13:31;;;;;;;5.03;3.72;;;;;;;;;;6181048;23;20116;-73
2023/09/23 11:15:57;;;;;;;3.70;3.40;;;;;;;;;;6181551;23;20013;-74
2023/09/23 11:18:24;;;;;;;6.00;3.97;;;;;;;;;;6182821;23;20084;-73
2023/09/23 11:20:51;;;;;;;3.90;3.53;;;;;;;;;;6181440;23;20024;-73
2023/09/23 11:23:18;;;;;;;9.38;3.42;;;;;;;;;;6182767;23;20009;-72
2023/09/23 11:25:45;;;;;;;4.15;3.75;;;;;;;;;;6156732;23;20021;-74
2023/09/23 11:28:18;;;;;;;4.90;3.63;;;;;;;;;;6180048;23;20063;-74
2023/09/23 11:30:44;;;;;;;4.28;3.67;;;;;;;;;;6181617;23;20362;-73
2023/09/23 11:33:13;;;;;;;6.97;4.25;;;;;;;;;;6181933;23;20044;-74
2023/09/23 11:35:40;;;;;;;6.93;3.20;;;;;;;;;;6181641;23;20017;-74
2023/09/23 11:38:07;;;;;;;4.30;4.00;;;;;;;;;;6156212;23;20036;-75
2023/09/23 11:40:34;;;;;;;4.70;3.92;;;;;;;;;;6181446;23;20028;-75
2023/09/23 11:43:00;;;;;;;5.25;4.03;;;;;;;;;;6180113;23;20013;-73
2023/09/23 11:45:26;;;;;;;4.70;4.05;;;;;;;;;;6181103;23;20370;-75
2023/09/23 11:47:55;;;;;;;6.05;3.65;;;;;;;;;;6156775;23;20009;-75
2023/09/23 11:50:21;;;;;;;11.52;3.95;;;;;;;;;;6182583;23;20016;-75
2023/09/23 11:52:47;;;;;;;5.03;3.40;;;;;;;;;;6180327;23;20481;-75
2023/09/23 11:55:13;;;;;;;10.30;3.53;;;;;;;;;;6182189;23;20020;-75
2023/09/23 11:57:39;;;;;;;6.45;3.55;;;;;;;;;;6181123;23;20095;-72
2023/09/23 12:00:09;;;;;;;7.10;4.32;;;;;;;;;;6179961;23;20021;-71
2023/09/23 12:02:39;;;;;;;7.10;3.70;;;;;;;;;;6180248;23;20442;-71
2023/09/23 12:05:18;;;;;;;6.43;3.63;;;;;;;;;;6180351;23;20062;-72
2023/09/23 12:07:44;;;;;;;5.18;3.58;;;;;;;;;;6181958;23;20469;-72
2023/09/23 12:10:13;;;;;;;3.60;3.40;;;;;;;;;;6181556;23;20044;-73
2023/09/23 12:12:40;;;;;;;10.30;3.10;;;;;;;;;;6181229;23;20539;-71
2023/09/23 12:15:08;;;;;;;3.47;3.17;;;;;;;;;;6180783;23;20009;-73
2023/09/23 12:17:35;;;;;;;7.68;3.78;;;;;;;;;;6180289;23;20536;-71
2023/09/23 12:20:02;;;;;;;3.50;3.20;;;;;;;;;;6155365;23;20013;-74
2023/09/23 12:22:30;;;;;;;6.07;3.43;;;;;;;;;;6179125;23;20017;-74
2023/09/23 12:24:56;;;;;;;5.60;3.13;;;;;;;;;;6180786;23;20013;-73
2023/09/23 12:27:22;;;;;;;4.55;3.03;;;;;;;;;;6155420;23;20378;-74
2023/09/23 12:29:49;;;;;;;8.70;3.75;;;;;;;;;;6210453;23;20377;-73
2023/09/23 12:32:15;;;;;;;3.90;3.60;;;;;;;;;;6211582;23;20453;-74
2023/09/23 12:34:41;;;;;;;3.80;3.50;;;;;;;;;;6184017;23;20009;-73
2023/09/23 12:37:07;;;;;;;3.80;3.40;;;;;;;;;;6209818;23;20087;-73
2023/09/23 12:39:33;;;;;;;6.40;3.83;;;;;;;;;;6209119;23;20416;-73
2023/09/23 12:42:00;;;;;;;5.25;3.80;;;;;;;;;;6209741;23;20056;-72
2023/09/23 12:44:27;;;;;;;8.98;4.60;;;;;;;;;;6209416;23;20103;-73
2023/09/23 12:46:53;;;;;;;5.68;4.50;;;;;;;;;;6209909;23;20016;-73
2023/09/23 12:49:19;;;;;;;5.47;3.53;;;;;;;;;;6209676;23;20313;-73
2023/09/23 12:51:47;;;;;;;5.30;3.90;;;;;;;;;;6210179;23;20501;-73
2023/09/23 12:54:13;;;;;;;3.60;3.40;;;;;;;;;;6210258;23;20021;-72
2023/09/23 12:56:39;;;;;;;8.43;3.80;;;;;;;;;;6212927;23;20016;-73
2023/09/23 12:59:06;;;;;;;9.20;4.30;;;;;;;;;;6161251;23;20023;-72
2023/09/23 13:01:33;;;;;;;13.85;4.00;;;;;;;;;;6162287;23;20021;-73
2023/09/23 13:04:00;;;;;;;3.97;3.50;;;;;;;;;;6187766;23;20507;-73
2023/09/23 13:06:26;;;;;;;5.93;3.80;;;;;;;;;;6161196;23;20012;-72
2023/09/23 13:08:52;;;;;;;4.07;3.30;;;;;;;;;;6212907;23;20012;-73
2023/09/23 13:11:21;;;;;;;14.15;3.83;;;;;;;;;;6185692;23;20051;-72
2023/09/23 13:13:49;;;;;;;6.60;3.70;;;;;;;;;;6212614;23;20067;-73
2023/09/23 13:16:17;;;;;;;5.22;3.55;;;;;;;;;;6186178;23;20087;-73
2023/09/23 13:18:44;;;;;;;4.30;3.90;;;;;;;;;;6185420;23;20047;-73
2023/09/23 13:21:10;;;;;;;6.32;4.03;;;;;;;;;;6185309;23;20434;-72
2023/09/23 13:23:38;;;;;;;4.15;3.75;;;;;;;;;;6185359;23;20572;-72
2023/09/23 13:26:06;;;;;;;3.22;3.00;;;;;;;;;;6136545;23;20074;-72
2023/09/23 13:28:32;;;;;;;4.15;3.78;;;;;;;;;;6211527;23;20124;-73
2023/09/23 13:30:59;;;;;;;4.30;3.72;;;;;;;;;;6211536;23;20019;-73
2023/09/23 13:33:26;;;;;;;4.80;3.67;;;;;;;;;;6211765;23;20066;-72
2023/09/23 13:35:52;;;;;;;10.63;3.30;;;;;;;;;;6160571;23;20016;-72
2023/09/23 13:38:18;;;;;;;5.90;3.63;;;;;;;;;;6185051;23;20035;-73
2023/09/23 13:40:44;;;;;;;7.80;3.60;;;;;;;;;;6160608;23;20461;-73
2023/09/23 13:43:11;;;;;;;5.80;3.45;;;;;;;;;;6185495;23;20020;-73
2023/09/23 13:45:37;;;;;;;18.52;3.83;;;;;;;;;;6184653;23;20017;-73
2023/09/23 13:48:05;;;;;;;5.30;3.30;;;;;;;;;;6185910;23;20008;-72
2023/09/23 13:50:32;;;;;;;16.15;3.35;;;;;;;;;;6211341;23;20016;-73
2023/09/23 13:52:58;;;;;;;7.03;3.17;;;;;;;;;;6185339;23;20013;-73
2023/09/23 13:55:24;;;;;;;4.40;3.80;;;;;;;;;;6211815;23;20023;-72
2023/09/23 13:57:50;;;;;;;6.45;3.05;;;;;;;;;;6160968;23;20005;-73
2023/09/23 14:00:16;;;;;;;3.40;3.10;;;;;;;;;;6210986;23;20012;-73
2023/09/23 14:02:43;;;;;;;11.27;3.58;;;;;;;;;;6211486;23;20016;-73
2023/09/23 14:05:10;;;;;;;3.35;3.05;;;;;;;;;;6184842;23;20020;-72
2023/09/23 14:07:39;;;;;;;4.18;3.40;;;;;;;;;;6211645;23;20346;-72
2023/09/23 14:10:05;;;;;;;4.88;3.30;;;;;;;;;;6185074;23;20013;-73
2023/09/23 14:12:31;;;;;;;3.45;3.03;;;;;;;;;;6184961;23;20016;-73
2023/09/23 14:14:57;;;;;;;11.60;4.53;;;;;;;;;;6212116;23;20439;-73
2023/09/23 14:17:23;;;;;;;6.18;3.50;;;;;;;;;;6212918;23;20044;-73
2023/09/23 14:19:49;;;;;;;7.07;3.17;;;;;;;;;;6185528;23;20013;-73
2023/09/23 14:22:16;;;;;;;7.75;3.78;;;;;;;;;;6211627;23;20024;-73
2023/09/23 14:24:43;;;;;;;7.75;4.45;;;;;;;;;;6161193;23;20012;-73
2023/09/23 14:27:09;;;;;;;16.63;3.85;;;;;;;;;;6185944;23;20020;-73
2023/09/23 14:29:35;;;;;;;9.82;3.88;;;;;;;;;;6211746;23;20111;-73
2023/09/23 14:32:05;;;;;;;5.03;3.20;;;;;;;;;;6185512;23;20019;-73
2023/09/23 14:34:32;;;;;;;6.40;3.50;;;;;;;;;;6187039;23;20017;-73
2023/09/23 14:36:58;;;;;;;6.05;2.78;;;;;;;;;;6188542;23;20360;-72
2023/09/23 14:39:24;;;;;;;6.38;3.42;;;;;;;;;;6186528;23;20017;-72